Time;durP1;ratioP1;P1;durP2;ratioP2;P2;SDS_P1;SDS_P2;PMS_P1;PMS_P2;Temp;Humidity;BMP_temperature;BMP_pressure;BME280_temperature;BME280_humidity;BME280_pressure;Samples;Min_cycle;Max_cycle;Signal;HPM_P1;HPM_P2
2023/04/01 00:01:25;;;;;;;;;;;9.00;99.90;;;;;;4968805;28;19945;-74
2023/04/01 05:03:42;;;;;;;;;;;8.20;99.90;;;;;;4932701;29;19926;-73
2023/04/01 05:06:08;;;;;;;;;;;8.30;99.90;;;;;;4927189;29;19918;-74
2023/04/01 05:08:34;;;;;;;;;;;8.20;99.90;;;;;;4926834;29;19987;-75
2023/04/01 05:11:01;;;;;;;;;;;8.20;99.90;;;;;;4945863;29;20215;-75
2023/04/01 05:13:28;;;;;;;;;;;8.20;99.90;;;;;;4922939;29;20017;-76
2023/04/01 05:15:54;;;;;;;;;;;8.20;99.90;;;;;;4934269;29;19906;-75
2023/04/01 05:18:19;;;;;;;;;;;8.30;99.90;;;;;;4954227;29;19914;-74
2023/04/01 05:20:49;;;;;;;;;;;8.30;99.90;;;;;;4940625;29;20212;-73
2023/04/01 05:23:15;;;;;;;;;;;8.40;99.90;;;;;;4939507;29;20117;-75
2023/04/01 05:25:41;;;;;;;;;;;8.40;99.90;;;;;;4946292;29;19914;-74
2023/04/01 05:28:07;;;;;;;;;;;8.40;99.90;;;;;;4926836;29;20100;-74
2023/04/01 05:30:34;;;;;;;;;;;8.40;99.90;;;;;;4948185;29;20131;-73
2023/04/01 05:33:02;;;;;;;;;;;8.50;99.90;;;;;;4947551;29;19958;-73
2023/04/01 05:35:28;;;;;;;;;;;8.50;99.90;;;;;;4943588;29;20183;-73
2023/04/01 05:37:54;;;;;;;;;;;8.50;99.90;;;;;;4925442;29;19914;-73
2023/04/01 05:40:20;;;;;;;;;;;8.60;99.90;;;;;;4925752;29;19959;-73
2023/04/01 05:42:46;;;;;;;;;;;8.70;99.90;;;;;;4944174;28;19902;-73
2023/04/01 05:45:11;;;;;;;;;;;8.70;99.90;;;;;;4947051;29;19906;-73
2023/04/01 05:48:16;;;;;;;;;;;8.80;99.90;;;;;;4948782;29;19907;-76
2023/04/01 05:50:42;;;;;;;;;;;8.80;99.90;;;;;;4959853;29;19938;-74
2023/04/01 05:53:09;;;;;;;;;;;8.90;99.90;;;;;;4943683;29;19913;-73
2023/04/01 05:55:36;;;;;;;;;;;8.90;99.90;;;;;;4944482;29;19911;-73
2023/04/01 05:58:02;;;;;;;;;;;9.00;99.90;;;;;;4917076;29;19906;-74
2023/04/01 06:00:29;;;;;;;;;;;9.00;99.90;;;;;;4949154;29;20180;-72
2023/04/01 06:03:00;;;;;;;;;;;9.10;99.90;;;;;;4943630;29;19910;-73
2023/04/01 06:05:28;;;;;;;;;;;9.10;99.90;;;;;;4945125;29;19918;-74
2023/04/01 06:08:08;;;;;;;;;;;9.20;99.90;;;;;;4925948;29;19907;-73
2023/04/01 06:10:43;;;;;;;;;;;9.30;99.90;;;;;;4925020;29;19915;-73
2023/04/01 06:13:08;;;;;;;;;;;9.40;99.90;;;;;;4943632;29;20141;-75
2023/04/01 06:15:43;;;;;;;;;;;9.40;99.90;;;;;;4925183;29;19907;-74
2023/04/01 06:18:22;;;;;;;;;;;9.50;99.90;;;;;;4936752;29;19919;-74
2023/04/01 06:21:04;;;;;;;;;;;9.50;99.90;;;;;;4910408;29;19907;-74
2023/04/01 06:23:37;;;;;;;;;;;9.60;99.90;;;;;;4925639;29;19962;-72
2023/04/01 06:26:16;;;;;;;;;;;9.70;99.90;;;;;;4934338;29;19921;-72
2023/04/01 06:29:06;;;;;;;;;;;9.80;99.90;;;;;;4943990;29;20203;-74
2023/04/01 06:31:38;;;;;;;;;;;9.80;99.90;;;;;;4942027;29;19950;-76
2023/04/01 06:34:13;;;;;;;;;;;9.90;99.90;;;;;;4929045;29;19914;-77
2023/04/01 06:36:45;;;;;;;;;;;10.00;99.90;;;;;;4934396;29;19919;-77
2023/04/01 06:39:30;;;;;;;;;;;10.00;99.90;;;;;;4939302;29;19906;-80
2023/04/01 06:42:14;;;;;;;;;;;10.00;99.90;;;;;;4954565;28;19920;-72
2023/04/01 06:44:48;;;;;;;;;;;10.00;99.90;;;;;;4957338;28;20187;-76
2023/04/01 06:48:04;;;;;;;;;;;10.10;99.90;;;;;;4838761;29;20159;-75
2023/04/01 06:50:54;;;;;;;;;;;10.10;99.90;;;;;;4959145;29;19912;-76
2023/04/01 06:53:59;;;;;;;;;;;10.20;99.90;;;;;;4923394;29;19981;-76
2023/04/01 06:57:20;;;;;;;;;;;10.20;99.90;;;;;;4879174;29;19912;-75
2023/04/01 06:59:53;;;;;;;;;;;10.20;99.90;;;;;;4867003;29;20213;-76
2023/04/01 07:02:23;;;;;;;;;;;10.20;99.90;;;;;;4917122;29;19950;-74
2023/04/01 07:04:50;;;;;;;;;;;10.20;99.90;;;;;;4927471;29;19907;-75
2023/04/01 07:07:46;;;;;;;;;;;10.20;99.90;;;;;;4977187;27;4670025;-75
2023/04/01 07:10:22;;;;;;;;;;;10.20;99.90;;;;;;5068693;28;19909;-75
2023/04/01 07:13:10;;;;;;;;;;;10.30;99.90;;;;;;5089683;28;20010;-72
2023/04/01 07:15:56;;;;;;;;;;;10.40;99.90;;;;;;5092243;28;19920;-75
2023/04/01 07:18:42;;;;;;;;;;;10.40;99.90;;;;;;5078477;28;19908;-73
2023/04/01 07:21:14;;;;;;;;;;;10.40;99.90;;;;;;5078856;28;19912;-72
2023/04/01 07:23:42;;;;;;;;;;;10.50;99.90;;;;;;5092296;28;19962;-72
2023/04/01 07:26:22;;;;;;;;;;;10.50;99.90;;;;;;5072707;28;19959;-73
2023/04/01 07:29:14;;;;;;;;;;;10.50;99.90;;;;;;5076529;28;19946;-72
2023/04/01 07:32:07;;;;;;;;;;;10.50;99.90;;;;;;5055483;28;19909;-72
2023/04/01 07:34:33;;;;;;;;;;;10.40;99.90;;;;;;5078771;28;19931;-76
2023/04/01 07:37:02;;;;;;;;;;;10.40;99.90;;;;;;5075400;28;20245;-73
2023/04/01 07:39:35;;;;;;;;;;;10.30;99.90;;;;;;5093891;28;19915;-76
2023/04/01 07:42:35;;;;;;;;;;;10.40;99.90;;;;;;5060066;28;19923;-74
2023/04/01 07:45:04;;;;;;;;;;;10.40;99.90;;;;;;5077518;28;19913;-75
2023/04/01 07:47:43;;;;;;;;;;;10.50;99.90;;;;;;5087880;28;19917;-73
2023/04/01 07:50:27;;;;;;;;;;;10.50;99.90;;;;;;5070963;28;20289;-73
2023/04/01 07:53:11;;;;;;;;;;;10.50;99.90;;;;;;5087071;28;19955;-74
2023/04/01 07:56:04;;;;;;;;;;;10.60;99.90;;;;;;5062153;28;20107;-76
2023/04/01 07:59:06;;;;;;;;;;;10.70;99.90;;;;;;5059475;28;19916;-76
2023/04/01 08:02:15;;;;;;;;;;;10.80;99.90;;;;;;5083621;28;19940;-77
2023/04/01 08:04:56;;;;;;;;;;;10.80;99.90;;;;;;5071994;28;19963;-72
2023/04/01 08:07:28;;;;;;;;;;;10.90;99.90;;;;;;5054118;28;20249;-73
2023/04/01 08:10:45;;;;;;;;;;;11.00;99.90;;;;;;5060550;28;20191;-75
2023/04/01 08:13:44;;;;;;;;;;;11.00;99.90;;;;;;5047336;28;19969;-74
2023/04/01 08:17:02;;;;;;;;;;;11.00;99.90;;;;;;5004402;28;19921;-75
2023/04/01 08:19:37;;;;;;;;;;;11.10;99.90;;;;;;5040899;28;20056;-76
2023/04/01 08:22:07;;;;;;;;;;;11.20;99.90;;;;;;5048611;28;19929;-78
2023/04/01 08:24:33;;;;;;;;;;;11.10;99.90;;;;;;5026693;28;20757;-74
2023/04/01 08:27:01;;;;;;;;;;;11.20;99.90;;;;;;5020315;28;19914;-75
2023/04/01 08:29:38;;;;;;;;;;;11.10;99.90;;;;;;5038933;28;20488;-75
2023/04/01 08:32:18;;;;;;;;;;;11.20;99.90;;;;;;5007574;28;20075;-74
2023/04/01 08:34:45;;;;;;;;;;;11.30;99.90;;;;;;5040490;28;19909;-77
2023/04/01 08:37:39;;;;;;;;;;;11.20;99.90;;;;;;5041000;28;19909;-75
2023/04/01 08:40:31;;;;;;;;;;;11.30;99.90;;;;;;5044328;28;20079;-75
2023/04/01 08:43:06;;;;;;;;;;;11.10;99.90;;;;;;5015203;28;19909;-74
2023/04/01 08:45:53;;;;;;;;;;;11.00;99.90;;;;;;5040331;28;19925;-73
2023/04/01 08:48:27;;;;;;;;;;;10.70;99.90;;;;;;5030062;28;19917;-75
2023/04/01 08:51:12;;;;;;;;;;;10.70;99.90;;;;;;5040196;28;20146;-78
2023/04/01 08:53:50;;;;;;;;;;;10.30;99.90;;;;;;5038950;28;19917;-74
2023/04/01 08:56:40;;;;;;;;;;;9.80;99.90;;;;;;5056403;28;20031;-75
2023/04/01 08:59:26;;;;;;;;;;;9.40;99.90;;;;;;5036734;28;20275;-76
2023/04/01 09:02:10;;;;;;;;;;;9.20;99.90;;;;;;5023802;28;20192;-75
2023/04/01 09:05:03;;;;;;;;;;;9.20;99.90;;;;;;5055831;28;19984;-76
2023/04/01 09:07:29;;;;;;;;;;;9.20;99.90;;;;;;5039304;28;20020;-74
2023/04/01 09:10:25;;;;;;;;;;;9.20;99.90;;;;;;5038307;28;19913;-74
2023/04/01 09:13:02;;;;;;;;;;;9.30;99.90;;;;;;5026454;28;19910;-73
2023/04/01 09:15:53;;;;;;;;;;;9.40;99.90;;;;;;5020632;28;20202;-75
2023/04/01 09:18:40;;;;;;;;;;;9.50;99.90;;;;;;5052681;28;19917;-72
2023/04/01 09:21:31;;;;;;;;;;;9.70;99.90;;;;;;5022618;28;19959;-74
2023/04/01 09:24:00;;;;;;;;;;;9.80;99.90;;;;;;5054115;28;20222;-73
2023/04/01 09:26:49;;;;;;;;;;;9.90;99.90;;;;;;5038323;28;19995;-72
2023/04/01 09:29:21;;;;;;;;;;;10.10;99.90;;;;;;5050249;28;19948;-72
2023/04/01 09:31:53;;;;;;;;;;;10.20;99.90;;;;;;5019433;28;19916;-74
2023/04/01 09:34:54;;;;;;;;;;;10.40;99.90;;;;;;5000373;28;19984;-77
2023/04/01 09:37:23;;;;;;;;;;;10.70;99.90;;;;;;5037615;28;19980;-73
2023/04/01 09:40:13;;;;;;;;;;;11.00;99.90;;;;;;5041773;28;19932;-73
2023/04/01 09:42:43;;;;;;;;;;;11.10;99.90;;;;;;5056976;28;19909;-72
2023/04/01 09:45:50;;;;;;;;;;;11.00;99.90;;;;;;5037966;28;19909;-71
2023/04/01 09:48:33;;;;;;;;;;;10.90;99.90;;;;;;5024681;28;19916;-73
2023/04/01 09:51:19;;;;;;;;;;;10.60;99.90;;;;;;5039189;28;19916;-75
2023/04/01 09:53:45;;;;;;;;;;;10.40;99.90;;;;;;5020940;28;20099;-75
2023/04/01 09:56:28;;;;;;;;;;;10.50;99.90;;;;;;5038133;28;19916;-74
2023/04/01 09:59:06;;;;;;;;;;;10.40;99.90;;;;;;5023129;28;19984;-75
2023/04/01 10:02:01;;;;;;;;;;;10.40;99.90;;;;;;5022415;28;19985;-75
2023/04/01 10:04:31;;;;;;;;;;;10.40;99.90;;;;;;5032680;28;19955;-76
2023/04/01 10:07:10;;;;;;;;;;;10.60;99.90;;;;;;5038802;28;20088;-73
2023/04/01 10:09:39;;;;;;;;;;;10.70;99.90;;;;;;5038650;28;19909;-72
2023/04/01 10:12:18;;;;;;;;;;;10.80;99.90;;;;;;5044971;28;19910;-73
2023/04/01 10:15:06;;;;;;;;;;;11.00;99.90;;;;;;5053187;28;19913;-72
2023/04/01 10:17:37;;;;;;;;;;;11.10;99.90;;;;;;5044797;28;19956;-75
2023/04/01 10:20:16;;;;;;;;;;;11.40;99.90;;;;;;5053899;28;19932;-75
2023/04/01 10:23:12;;;;;;;;;;;11.50;99.90;;;;;;5052351;28;19922;-74
2023/04/01 10:25:56;;;;;;;;;;;11.60;99.90;;;;;;5021820;28;19926;-73
2023/04/01 10:28:41;;;;;;;;;;;11.80;99.90;;;;;;5029160;28;19917;-74
2023/04/01 10:31:41;;;;;;;;;;;11.90;99.90;;;;;;5012561;28;19916;-74
2023/04/01 10:34:10;;;;;;;;;;;12.20;99.90;;;;;;5054231;28;19932;-73
2023/04/01 10:36:39;;;;;;;;;;;12.10;99.90;;;;;;5022473;28;19909;-73
2023/04/01 10:39:23;;;;;;;;;;;12.10;99.90;;;;;;5024055;28;19915;-72
2023/04/01 10:42:14;;;;;;;;;;;11.90;99.90;;;;;;5035202;28;19909;-73
2023/04/01 10:45:30;;;;;;;;;;;11.60;99.90;;;;;;4962905;28;19948;-73
2023/04/01 10:48:18;;;;;;;;;;;11.50;99.90;;;;;;4977103;28;19918;-74
2023/04/01 10:51:02;;;;;;;;;;;11.60;99.90;;;;;;4979895;28;20223;-75
2023/04/01 10:53:47;;;;;;;;;;;11.60;99.90;;;;;;4998885;28;19961;-73
2023/04/01 10:57:00;;;;;;;;;;;11.70;99.90;;;;;;5019068;28;20195;-75
2023/04/01 11:03:56;;;;;;;;;;;11.60;99.90;;;;;;5030831;28;19948;-76
2023/04/01 11:07:00;;;;;;;;;;;11.50;99.90;;;;;;5029936;28;19990;-77
2023/04/01 11:09:25;;;;;;;;;;;11.50;99.90;;;;;;5041407;28;19947;-75
2023/04/01 11:12:13;;;;;;;;;;;11.50;99.90;;;;;;5048111;28;19917;-75
2023/04/01 11:14:53;;;;;;;;;;;11.50;99.90;;;;;;5043844;28;19938;-76
2023/04/01 11:17:37;;;;;;;;;;;11.60;99.90;;;;;;5055250;28;19976;-78
2023/04/01 11:20:18;;;;;;;;;;;11.90;99.90;;;;;;5030968;28;19916;-75
2023/04/01 11:23:02;;;;;;;;;;;12.10;99.90;;;;;;5037417;28;19922;-76
2023/04/01 11:25:40;;;;;;;;;;;12.50;99.40;;;;;;5043275;28;19932;-75
2023/04/01 11:28:35;;;;;;;;;;;13.00;98.90;;;;;;5061794;28;19916;-72
2023/04/01 11:31:14;;;;;;;;;;;13.20;97.80;;;;;;5043201;28;19908;-72
2023/04/01 11:33:49;;;;;;;;;;;13.30;97.00;;;;;;5042885;28;19916;-72
2023/04/01 11:36:28;;;;;;;;;;;13.40;97.40;;;;;;5039871;28;20271;-74
2023/04/01 11:39:14;;;;;;;;;;;13.40;96.50;;;;;;5058370;28;20072;-73
2023/04/01 11:42:26;;;;;;;;;;;13.80;96.50;;;;;;5044236;28;19980;-74
2023/04/01 11:45:13;;;;;;;;;;;14.40;95.50;;;;;;5041278;28;19990;-75
2023/04/01 11:47:59;;;;;;;;;;;14.20;94.80;;;;;;5042277;28;19917;-76
2023/04/01 11:50:34;;;;;;;;;;;14.40;94.60;;;;;;5040215;28;19917;-74
2023/04/01 11:53:05;;;;;;;;;;;14.50;94.10;;;;;;5062615;28;19909;-73
2023/04/01 11:55:40;;;;;;;;;;;14.30;94.50;;;;;;5050417;28;19917;-74
2023/04/01 11:58:09;;;;;;;;;;;13.90;94.70;;;;;;5045326;28;19963;-75
2023/04/01 12:00:43;;;;;;;;;;;13.50;95.90;;;;;;5044120;28;20206;-76
2023/04/01 12:03:08;;;;;;;;;;;13.60;96.20;;;;;;5045263;28;19910;-72
2023/04/01 12:05:38;;;;;;;;;;;13.00;96.70;;;;;;5060741;28;20073;-75
2023/04/01 12:08:04;;;;;;;;;;;12.80;98.20;;;;;;5046421;28;19983;-74
2023/04/01 12:10:37;;;;;;;;;;;12.70;98.10;;;;;;5054669;28;20257;-74
2023/04/01 12:13:22;;;;;;;;;;;12.90;98.10;;;;;;5063877;28;20126;-73
2023/04/01 12:15:53;;;;;;;;;;;12.80;97.60;;;;;;5042293;28;20113;-73
2023/04/01 12:18:24;;;;;;;;;;;12.70;98.00;;;;;;5044112;28;19916;-75
2023/04/01 12:20:57;;;;;;;;;;;12.60;99.00;;;;;;5043401;28;19917;-73
2023/04/01 12:23:28;;;;;;;;;;;12.50;99.50;;;;;;5042189;28;19955;-75
2023/04/01 12:25:54;;;;;;;;;;;12.30;99.90;;;;;;5042490;28;19920;-72
2023/04/01 12:28:20;;;;;;;;;;;12.00;99.90;;;;;;5044118;28;19913;-72
2023/04/01 12:30:46;;;;;;;;;;;11.80;99.90;;;;;;5055266;28;19916;-73
2023/04/01 12:33:23;;;;;;;;;;;11.70;99.90;;;;;;5055943;28;19916;-75
2023/04/01 12:35:52;;;;;;;;;;;11.80;99.90;;;;;;5036372;28;19955;-71
2023/04/01 12:38:33;;;;;;;;;;;11.90;99.90;;;;;;5051493;28;19910;-72
2023/04/01 12:41:22;;;;;;;;;;;12.10;99.90;;;;;;5045487;28;19909;-73
2023/04/01 12:43:50;;;;;;;;;;;12.10;99.90;;;;;;5041747;28;19943;-72
2023/04/01 12:46:39;;;;;;;;;;;12.30;99.90;;;;;;5040747;28;19917;-72
2023/04/01 12:49:04;;;;;;;;;;;12.90;99.90;;;;;;5038821;28;20103;-75
2023/04/01 12:51:38;;;;;;;;;;;13.20;98.00;;;;;;5035448;28;19909;-72
2023/04/01 12:54:22;;;;;;;;;;;13.70;97.00;;;;;;5055078;28;20007;-72
2023/04/01 12:56:47;;;;;;;;;;;14.20;96.10;;;;;;5045389;28;19932;-71
2023/04/01 12:59:25;;;;;;;;;;;13.70;95.60;;;;;;5044220;28;20190;-73
2023/04/01 13:01:57;;;;;;;;;;;13.40;95.50;;;;;;5044483;28;20199;-75
2023/04/01 13:04:43;;;;;;;;;;;13.50;95.60;;;;;;5042657;28;20080;-73
2023/04/01 13:07:22;;;;;;;;;;;13.70;95.60;;;;;;5028691;28;19917;-71
2023/04/01 13:10:08;;;;;;;;;;;13.80;95.20;;;;;;5049130;28;19917;-72
2023/04/01 13:12:40;;;;;;;;;;;13.90;94.90;;;;;;5063582;28;19988;-72
2023/04/01 13:15:28;;;;;;;;;;;13.40;95.80;;;;;;5064373;28;19908;-74
2023/04/01 13:18:03;;;;;;;;;;;13.00;96.90;;;;;;5058350;28;19909;-75
2023/04/01 13:20:36;;;;;;;;;;;12.80;98.20;;;;;;5060632;28;19947;-73
2023/04/01 13:23:02;;;;;;;;;;;12.60;97.00;;;;;;5049562;28;19908;-75
2023/04/01 13:25:45;;;;;;;;;;;12.60;97.00;;;;;;5056571;28;19919;-73
2023/04/01 13:28:35;;;;;;;;;;;12.50;96.60;;;;;;5055041;28;20199;-72
2023/04/01 13:31:19;;;;;;;;;;;12.50;96.60;;;;;;5055678;28;20183;-73
2023/04/01 13:34:03;;;;;;;;;;;12.80;96.20;;;;;;5061204;28;20089;-72
2023/04/01 13:36:42;;;;;;;;;;;13.10;96.10;;;;;;5063659;28;19940;-74
2023/04/01 13:39:20;;;;;;;;;;;13.00;95.50;;;;;;5063705;28;19908;-74
2023/04/01 13:41:49;;;;;;;;;;;13.10;95.50;;;;;;5063774;28;20236;-72
2023/04/01 13:44:15;;;;;;;;;;;13.10;95.60;;;;;;5044664;28;19980;-71
2023/04/01 13:46:53;;;;;;;;;;;13.10;95.60;;;;;;5043810;28;19913;-73
2023/04/01 13:49:34;;;;;;;;;;;13.20;95.40;;;;;;5041869;28;19913;-73
2023/04/01 13:52:02;;;;;;;;;;;13.70;94.70;;;;;;5036366;28;19909;-74
2023/04/01 13:54:36;;;;;;;;;;;13.40;94.80;;;;;;5043326;28;20004;-74
2023/04/01 13:57:21;;;;;;;;;;;13.40;95.00;;;;;;5043648;28;19979;-73
2023/04/01 13:59:47;;;;;;;;;;;13.40;94.70;;;;;;5042571;28;19909;-73
2023/04/01 14:02:31;;;;;;;;;;;13.80;94.50;;;;;;5043470;28;19910;-73
2023/04/01 14:05:06;;;;;;;;;;;14.00;93.80;;;;;;5043503;28;19931;-74
2023/04/01 14:07:34;;;;;;;;;;;13.90;94.10;;;;;;5051250;28;19924;-74
2023/04/01 14:10:18;;;;;;;;;;;13.70;94.20;;;;;;5044363;28;20146;-74
2023/04/01 14:12:47;;;;;;;;;;;13.60;94.50;;;;;;5061809;28;20036;-73
2023/04/01 14:15:29;;;;;;;;;;;13.60;94.60;;;;;;5062799;28;19909;-72
2023/04/01 14:18:07;;;;;;;;;;;13.50;94.80;;;;;;5063108;28;19983;-73
2023/04/01 14:20:51;;;;;;;;;;;13.30;94.50;;;;;;5061432;28;20170;-74
2023/04/01 14:23:29;;;;;;;;;;;13.20;95.00;;;;;;5033751;28;19909;-72
2023/04/01 14:26:13;;;;;;;;;;;13.30;95.20;;;;;;5042765;28;19913;-74
2023/04/01 14:28:48;;;;;;;;;;;13.10;95.30;;;;;;5037566;28;19956;-72
2023/04/01 14:31:33;;;;;;;;;;;12.90;96.30;;;;;;5055638;28;19916;-71
2023/04/01 14:34:17;;;;;;;;;;;12.70;96.20;;;;;;5058131;28;19916;-72
2023/04/01 14:36:49;;;;;;;;;;;12.60;96.90;;;;;;5047471;28;20195;-72
2023/04/01 14:39:41;;;;;;;;;;;12.40;97.90;;;;;;5045710;28;19932;-73
2023/04/01 14:42:23;;;;;;;;;;;12.00;98.50;;;;;;5027064;28;19909;-73
2023/04/01 14:44:57;;;;;;;;;;;11.90;99.70;;;;;;5042579;28;20047;-71
2023/04/01 14:47:25;;;;;;;;;;;11.90;99.90;;;;;;5042286;28;19940;-71
2023/04/01 14:49:53;;;;;;;;;;;12.00;99.90;;;;;;5042838;28;19967;-73
2023/04/01 14:52:45;;;;;;;;;;;12.00;99.40;;;;;;5043015;28;19931;-74
2023/04/01 14:55:29;;;;;;;;;;;12.00;99.30;;;;;;5026521;28;19916;-73
2023/04/01 14:58:00;;;;;;;;;;;12.20;99.00;;;;;;5042674;28;19916;-72
2023/04/01 15:00:26;;;;;;;;;;;12.30;98.00;;;;;;5040870;28;19940;-72
2023/04/01 15:03:03;;;;;;;;;;;12.30;98.10;;;;;;5045480;28;20183;-72
2023/04/01 15:05:44;;;;;;;;;;;12.40;97.80;;;;;;5048523;28;19909;-72
2023/04/01 15:08:28;;;;;;;;;;;12.60;97.80;;;;;;5048451;28;19936;-72
2023/04/01 15:10:57;;;;;;;;;;;12.60;97.60;;;;;;5049900;28;20244;-74
2023/04/01 15:13:28;;;;;;;;;;;12.70;96.80;;;;;;5062960;28;19922;-73
2023/04/01 15:16:12;;;;;;;;;;;12.80;96.40;;;;;;5063842;28;19909;-71
2023/04/01 15:18:58;;;;;;;;;;;12.70;96.40;;;;;;5063149;28;19915;-72
2023/04/01 15:21:42;;;;;;;;;;;12.50;96.30;;;;;;5062801;28;20206;-74
2023/04/01 15:24:23;;;;;;;;;;;12.60;96.70;;;;;;5044433;28;20011;-73
2023/04/01 15:27:07;;;;;;;;;;;12.60;96.60;;;;;;5041973;28;19917;-72
2023/04/01 15:29:40;;;;;;;;;;;12.70;96.70;;;;;;5045425;28;19917;-72
2023/04/01 15:32:25;;;;;;;;;;;12.70;96.40;;;;;;5046642;28;19909;-74
2023/04/01 15:35:14;;;;;;;;;;;12.70;96.40;;;;;;5046255;28;19924;-73
2023/04/01 15:38:02;;;;;;;;;;;12.70;96.80;;;;;;5047480;28;19909;-74
2023/04/01 15:40:42;;;;;;;;;;;12.70;96.60;;;;;;5049986;28;19913;-74
2023/04/01 15:43:11;;;;;;;;;;;12.70;96.80;;;;;;5028537;28;19909;-72
2023/04/01 15:45:42;;;;;;;;;;;12.50;96.90;;;;;;5045583;28;19913;-75
2023/04/01 15:48:34;;;;;;;;;;;12.40;97.20;;;;;;5046024;28;19909;-72
2023/04/01 15:51:22;;;;;;;;;;;12.30;97.30;;;;;;5043484;28;19909;-73
2023/04/01 15:53:56;;;;;;;;;;;12.30;97.50;;;;;;5050832;28;20056;-72
2023/04/01 15:56:27;;;;;;;;;;;12.30;98.00;;;;;;5061462;28;20253;-71
2023/04/01 15:58:59;;;;;;;;;;;12.10;97.70;;;;;;5045583;28;19917;-73
2023/04/01 16:01:44;;;;;;;;;;;12.10;97.80;;;;;;5045821;28;19916;-72
2023/04/01 16:04:29;;;;;;;;;;;12.00;98.10;;;;;;5046939;28;19949;-73
2023/04/01 16:07:13;;;;;;;;;;;11.90;98.20;;;;;;5036787;28;19925;-74
2023/04/01 16:09:39;;;;;;;;;;;11.90;98.30;;;;;;5038584;28;19971;-72
2023/04/01 16:12:34;;;;;;;;;;;11.90;98.20;;;;;;5028782;28;20166;-75
2023/04/01 16:15:15;;;;;;;;;;;11.90;98.00;;;;;;5006852;28;19944;-73
2023/04/01 16:18:03;;;;;;;;;;;12.00;97.90;;;;;;5025274;28;19918;-74
2023/04/01 16:20:48;;;;;;;;;;;12.00;98.00;;;;;;5025195;28;20253;-73
2023/04/01 16:23:28;;;;;;;;;;;12.00;98.00;;;;;;5017693;28;19928;-73
2023/04/01 16:26:03;;;;;;;;;;;11.90;97.90;;;;;;5013693;28;19959;-76
2023/04/01 16:28:39;;;;;;;;;;;11.80;97.90;;;;;;5039174;28;19913;-75
2023/04/01 16:31:05;;;;;;;;;;;11.80;97.90;;;;;;5020112;28;20214;-74
2023/04/01 16:33:50;;;;;;;;;;;11.70;98.00;;;;;;5031859;28;19916;-73
2023/04/01 16:36:29;;;;;;;;;;;11.70;97.90;;;;;;5026109;28;19916;-72
2023/04/01 16:39:13;;;;;;;;;;;11.60;97.90;;;;;;5024286;28;19910;-74
2023/04/01 16:42:02;;;;;;;;;;;11.60;97.80;;;;;;5025305;28;19909;-71
2023/04/01 16:44:28;;;;;;;;;;;11.60;98.10;;;;;;5026056;28;19913;-73
2023/04/01 16:46:59;;;;;;;;;;;11.50;98.30;;;;;;5037503;28;19913;-74
2023/04/01 16:49:28;;;;;;;;;;;11.50;98.40;;;;;;5025037;28;20089;-73
2023/04/01 16:51:59;;;;;;;;;;;11.60;98.40;;;;;;5023903;28;20266;-71
2023/04/01 16:54:27;;;;;;;;;;;11.60;98.60;;;;;;5016204;28;19909;-74
2023/04/01 16:57:15;;;;;;;;;;;11.70;98.60;;;;;;5024923;28;19910;-73
2023/04/01 16:59:46;;;;;;;;;;;11.60;98.80;;;;;;5002133;28;19913;-73
2023/04/01 17:02:14;;;;;;;;;;;11.60;98.70;;;;;;5044676;28;20176;-73
2023/04/01 17:04:49;;;;;;;;;;;11.60;99.10;;;;;;5014166;28;19909;-73
2023/04/01 17:07:24;;;;;;;;;;;11.70;99.10;;;;;;5024583;28;19954;-73
2023/04/01 17:10:08;;;;;;;;;;;11.60;99.20;;;;;;5024261;28;20187;-72
2023/04/01 17:12:47;;;;;;;;;;;11.60;99.20;;;;;;5026400;28;19909;-71
2023/04/01 17:15:13;;;;;;;;;;;11.60;99.30;;;;;;5045018;28;19916;-73
2023/04/01 17:18:08;;;;;;;;;;;11.60;99.60;;;;;;5036296;28;19921;-71
2023/04/01 17:20:46;;;;;;;;;;;11.60;99.70;;;;;;5003214;28;19937;-72
2023/04/01 17:23:14;;;;;;;;;;;11.50;99.40;;;;;;4990907;28;19981;-75
2023/04/01 17:25:49;;;;;;;;;;;11.50;99.50;;;;;;4983483;28;19949;-72
2023/04/01 17:28:14;;;;;;;;;;;11.50;99.80;;;;;;4983257;28;19910;-72
2023/04/01 17:30:48;;;;;;;;;;;11.40;99.90;;;;;;4983322;28;19976;-74
2023/04/01 17:33:32;;;;;;;;;;;11.40;99.70;;;;;;4991946;28;19910;-73
2023/04/01 17:36:17;;;;;;;;;;;11.50;99.70;;;;;;5003130;28;19918;-71
2023/04/01 17:38:55;;;;;;;;;;;11.50;99.70;;;;;;4989723;28;19944;-73
2023/04/01 17:41:28;;;;;;;;;;;11.40;99.90;;;;;;4979762;28;20219;-74
2023/04/01 17:44:19;;;;;;;;;;;11.40;99.90;;;;;;4984255;28;19910;-71
2023/04/01 17:46:44;;;;;;;;;;;11.30;99.90;;;;;;5007033;28;19914;-74
2023/04/01 17:49:19;;;;;;;;;;;11.30;99.90;;;;;;4987850;28;20271;-73
2023/04/01 17:51:51;;;;;;;;;;;11.30;99.90;;;;;;4981842;28;20160;-72
2023/04/01 17:54:39;;;;;;;;;;;11.30;99.90;;;;;;4982885;28;20219;-74
2023/04/01 17:57:24;;;;;;;;;;;11.30;99.90;;;;;;4983193;28;20128;-74
2023/04/01 18:00:02;;;;;;;;;;;11.20;99.90;;;;;;5012067;28;19910;-74
2023/04/01 18:02:52;;;;;;;;;;;11.20;99.90;;;;;;5023470;28;19937;-75
2023/04/01 18:05:17;;;;;;;;;;;11.20;99.90;;;;;;5023915;28;19952;-74
2023/04/01 18:07:52;;;;;;;;;;;11.20;99.90;;;;;;5022997;28;19918;-75
2023/04/01 18:10:25;;;;;;;;;;;11.10;99.90;;;;;;5023870;28;19910;-73
2023/04/01 18:12:50;;;;;;;;;;;11.10;99.90;;;;;;5032501;28;19916;-72
2023/04/01 18:15:36;;;;;;;;;;;11.00;99.90;;;;;;5032340;28;20095;-73
2023/04/01 18:18:10;;;;;;;;;;;11.00;99.90;;;;;;5000103;28;19910;-74
2023/04/01 18:20:39;;;;;;;;;;;10.90;99.90;;;;;;5004823;28;19914;-76
2023/04/01 18:23:11;;;;;;;;;;;10.90;99.90;;;;;;5022716;28;19910;-76
2023/04/01 18:25:40;;;;;;;;;;;10.70;99.90;;;;;;5023054;28;19956;-75
2023/04/01 18:28:05;;;;;;;;;;;10.60;99.90;;;;;;5023519;28;19932;-75
2023/04/01 18:30:32;;;;;;;;;;;10.50;99.90;;;;;;5023434;28;19909;-74
2023/04/01 18:33:02;;;;;;;;;;;10.50;99.90;;;;;;5023872;28;19916;-73
2023/04/01 18:35:34;;;;;;;;;;;10.40;99.90;;;;;;5024290;28;19916;-73
2023/04/01 18:38:02;;;;;;;;;;;10.40;99.90;;;;;;5035731;28;19920;-77
2023/04/01 18:40:47;;;;;;;;;;;10.40;99.90;;;;;;5037840;28;19905;-75
2023/04/01 18:43:37;;;;;;;;;;;10.40;99.90;;;;;;5042850;28;19909;-74
2023/04/01 18:46:21;;;;;;;;;;;10.30;99.90;;;;;;5042815;28;19924;-74
2023/04/01 18:49:05;;;;;;;;;;;10.20;99.90;;;;;;5042196;28;20222;-75
2023/04/01 18:51:57;;;;;;;;;;;10.20;99.90;;;;;;5024275;28;20138;-73
2023/04/01 18:54:41;;;;;;;;;;;10.10;99.90;;;;;;5025872;28;19909;-74
2023/04/01 18:57:14;;;;;;;;;;;10.00;99.90;;;;;;5041614;28;19958;-74
2023/04/01 18:59:40;;;;;;;;;;;9.90;99.90;;;;;;5022416;28;19916;-75
2023/04/01 19:02:24;;;;;;;;;;;9.80;99.90;;;;;;5021418;28;19905;-75
2023/04/01 19:05:05;;;;;;;;;;;9.70;99.90;;;;;;5022369;28;19910;-77
2023/04/01 19:07:37;;;;;;;;;;;9.60;99.90;;;;;;5020271;28;20206;-74
2023/04/01 19:10:21;;;;;;;;;;;9.50;99.90;;;;;;5020714;28;20214;-73
2023/04/01 19:12:51;;;;;;;;;;;9.40;99.90;;;;;;5024731;28;19917;-73
2023/04/01 19:15:20;;;;;;;;;;;9.40;99.90;;;;;;5024559;28;20082;-72
2023/04/01 19:17:57;;;;;;;;;;;9.30;99.90;;;;;;5021215;28;19992;-73
2023/04/01 19:20:45;;;;;;;;;;;9.30;99.90;;;;;;5013049;28;19925;-77
2023/04/01 19:23:17;;;;;;;;;;;9.20;99.90;;;;;;5021073;28;19972;-76
2023/04/01 19:25:47;;;;;;;;;;;9.10;99.90;;;;;;5003878;28;20246;-74
2023/04/01 19:28:36;;;;;;;;;;;9.10;99.90;;;;;;5019895;28;19916;-74
2023/04/01 19:31:11;;;;;;;;;;;9.10;99.90;;;;;;5022361;28;19952;-74
2023/04/01 19:33:52;;;;;;;;;;;8.90;99.90;;;;;;5017577;28;19909;-72
2023/04/01 19:36:20;;;;;;;;;;;8.90;99.90;;;;;;5018435;28;19917;-75
2023/04/01 19:38:52;;;;;;;;;;;9.00;99.90;;;;;;5021556;28;19910;-73
2023/04/01 19:41:36;;;;;;;;;;;9.00;99.90;;;;;;5020483;28;19916;-74
2023/04/01 19:44:14;;;;;;;;;;;9.00;99.90;;;;;;5001700;28;20033;-74
2023/04/01 19:46:49;;;;;;;;;;;9.00;99.90;;;;;;5001476;28;19964;-74
2023/04/01 19:49:41;;;;;;;;;;;9.00;99.90;;;;;;5002157;28;19922;-73
2023/04/01 19:52:23;;;;;;;;;;;9.00;99.90;;;;;;5026727;28;19945;-73
2023/04/01 19:54:54;;;;;;;;;;;9.00;99.90;;;;;;4998961;28;20191;-75
2023/04/01 19:57:43;;;;;;;;;;;8.90;99.90;;;;;;5020057;28;19933;-74
2023/04/01 20:00:11;;;;;;;;;;;8.90;99.90;;;;;;5021719;28;20008;-72
2023/04/01 20:02:56;;;;;;;;;;;8.80;99.90;;;;;;5021531;28;19933;-74
2023/04/01 20:05:33;;;;;;;;;;;8.90;99.90;;;;;;5020543;28;19980;-72
2023/04/01 20:08:08;;;;;;;;;;;8.90;99.90;;;;;;5022068;28;19976;-73
2023/04/01 20:10:56;;;;;;;;;;;9.00;99.90;;;;;;5021195;28;20274;-73
2023/04/01 20:13:27;;;;;;;;;;;9.10;99.90;;;;;;5020680;28;19980;-74
2023/04/01 20:15:59;;;;;;;;;;;9.10;99.90;;;;;;5023421;28;19910;-74
2023/04/01 20:18:38;;;;;;;;;;;9.20;99.90;;;;;;5032612;28;19955;-74
2023/04/01 20:21:09;;;;;;;;;;;9.20;99.90;;;;;;5023716;28;20146;-75
2023/04/01 20:23:51;;;;;;;;;;;9.30;99.90;;;;;;5037003;28;19909;-71
2023/04/01 20:26:21;;;;;;;;;;;9.30;99.90;;;;;;5041134;28;19913;-75
2023/04/01 20:28:57;;;;;;;;;;;9.30;99.90;;;;;;5024783;28;19914;-74
2023/04/01 20:31:26;;;;;;;;;;;9.40;99.90;;;;;;5040415;28;19979;-72